Time;durP1;ratioP1;P1;durP2;ratioP2;P2;SDS_P1;SDS_P2;PMS_P1;PMS_P2;Temp;Humidity;BMP_temperature;BMP_pressure;BME280_temperature;BME280_humidity;BME280_pressure;Samples;Min_cycle;Max_cycle;Signal;HPM_P1;HPM_P2
2022/06/23 00:01:42;;;;;;;8.60;2.67;;;22.60;56.90;;;;;;5000914;28;20316;-77
2022/06/23 00:04:14;;;;;;;6.65;2.25;;;22.60;57.00;;;;;;4995352;28;20568;-77
2022/06/23 00:06:46;;;;;;;6.65;2.08;;;22.60;57.10;;;;;;5000941;28;20596;-77
2022/06/23 00:09:37;;;;;;;7.45;2.30;;;22.50;57.00;;;;;;5002155;28;20192;-77
2022/06/23 00:12:23;;;;;;;6.85;2.40;;;22.50;57.20;;;;;;4996919;28;20208;-77
2022/06/23 00:14:56;;;;;;;8.32;2.55;;;22.50;57.20;;;;;;4995848;28;20205;-78
2022/06/23 00:17:28;;;;;;;8.35;2.83;;;22.40;57.20;;;;;;5004576;28;20606;-77
2022/06/23 00:20:05;;;;;;;4.03;2.30;;;22.40;57.40;;;;;;4997966;28;20184;-79
2022/06/23 00:22:34;;;;;;;7.50;2.35;;;22.40;57.40;;;;;;4996044;28;20224;-78
2022/06/23 00:25:05;;;;;;;6.50;2.35;;;22.40;57.60;;;;;;5003152;28;20710;-77
2022/06/23 00:27:39;;;;;;;4.88;2.33;;;22.40;57.80;;;;;;4998374;28;20235;-77
2022/06/23 00:30:20;;;;;;;7.32;2.80;;;22.30;57.90;;;;;;5000647;28;20196;-76
2022/06/23 00:32:49;;;;;;;7.72;2.30;;;22.30;58.00;;;;;;4995167;28;20227;-78
2022/06/23 00:35:19;;;;;;;5.80;2.50;;;22.30;58.10;;;;;;4998386;28;20192;-78
2022/06/23 00:37:49;;;;;;;7.85;3.35;;;22.20;58.20;;;;;;5001157;28;20184;-78
2022/06/23 00:40:22;;;;;;;7.65;2.45;;;22.20;58.30;;;;;;5015218;28;22257;-79
2022/06/23 00:42:56;;;;;;;10.10;2.83;;;22.20;58.40;;;;;;5008960;28;20203;-78
2022/06/23 00:45:31;;;;;;;5.68;2.38;;;22.20;58.60;;;;;;5001116;28;20196;-78
2022/06/23 00:48:08;;;;;;;7.03;2.42;;;22.10;58.50;;;;;;4989693;28;20208;-77
2022/06/23 00:50:40;;;;;;;6.32;2.70;;;22.10;58.60;;;;;;5001164;28;20681;-78
2022/06/23 00:53:19;;;;;;;4.28;1.65;;;22.10;58.80;;;;;;4995487;28;20249;-77
2022/06/23 00:55:55;;;;;;;5.60;2.10;;;22.10;58.90;;;;;;5000430;28;20219;-78
2022/06/23 00:58:33;;;;;;;7.05;2.17;;;22.10;58.70;;;;;;4999032;28;20199;-78
2022/06/23 01:01:11;;;;;;;3.50;1.60;;;22.10;58.60;;;;;;5000012;28;20287;-78
2022/06/23 01:03:44;;;;;;;4.72;1.73;;;22.00;58.20;;;;;;4992510;28;20196;-78
2022/06/23 01:06:19;;;;;;;5.38;2.10;;;22.00;58.00;;;;;;4999920;28;20972;-77
2022/06/23 01:08:54;;;;;;;5.45;2.08;;;22.10;57.80;;;;;;4996964;28;20644;-77
2022/06/23 01:11:29;;;;;;;9.32;2.55;;;22.10;57.70;;;;;;5001884;28;20188;-77
2022/06/23 01:14:15;;;;;;;4.90;1.95;;;22.10;57.60;;;;;;4999075;28;20610;-79
2022/06/23 01:16:48;;;;;;;4.40;2.05;;;22.00;57.50;;;;;;4997459;28;20197;-77
2022/06/23 01:19:51;;;;;;;6.72;2.10;;;22.00;57.40;;;;;;4996605;28;20251;-78
2022/06/23 01:22:27;;;;;;;5.80;1.80;;;22.00;57.50;;;;;;4993191;28;20219;-77
2022/06/23 01:25:05;;;;;;;8.82;1.67;;;22.00;57.40;;;;;;4998624;28;20212;-78
2022/06/23 01:28:00;;;;;;;2.70;1.70;;;22.00;57.40;;;;;;4991038;28;20694;-78
2022/06/23 01:30:33;;;;;;;3.15;1.65;;;21.90;57.30;;;;;;5007210;28;20199;-75
2022/06/23 01:33:12;;;;;;;3.88;1.70;;;21.90;57.30;;;;;;4998814;28;20205;-77
2022/06/23 01:35:44;;;;;;;3.22;2.03;;;21.80;57.20;;;;;;5001920;28;20188;-78
2022/06/23 01:38:18;;;;;;;3.65;1.90;;;21.80;57.20;;;;;;4998644;28;20199;-77
2022/06/23 01:40:52;;;;;;;7.63;2.38;;;21.80;57.20;;;;;;4998797;28;20568;-77
2022/06/23 01:43:27;;;;;;;7.73;1.93;;;21.80;57.20;;;;;;5001358;28;20208;-77
2022/06/23 01:45:59;;;;;;;3.95;1.92;;;21.80;57.30;;;;;;5008454;28;20187;-77
2022/06/23 01:48:53;;;;;;;4.00;2.00;;;21.80;57.40;;;;;;4986017;28;20334;-78
2022/06/23 01:51:25;;;;;;;6.10;2.08;;;21.80;57.40;;;;;;4996419;28;20196;-77
2022/06/23 01:53:55;;;;;;;6.10;2.30;;;21.70;57.40;;;;;;4998070;28;20200;-77
2022/06/23 01:56:32;;;;;;;3.53;2.30;;;21.70;57.50;;;;;;5002109;28;20192;-77
2022/06/23 01:59:15;;;;;;;7.57;2.40;;;21.70;57.60;;;;;;4990646;28;20200;-77
2022/06/23 02:01:51;;;;;;;5.60;2.10;;;21.70;57.60;;;;;;4996784;28;20212;-77
2022/06/23 02:04:25;;;;;;;11.17;2.97;;;21.60;57.70;;;;;;4993413;28;20207;-77
2022/06/23 02:06:58;;;;;;;9.17;2.73;;;21.60;57.80;;;;;;5001415;28;20545;-77
2022/06/23 02:09:34;;;;;;;8.00;2.63;;;21.60;57.90;;;;;;4997573;28;20188;-77
2022/06/23 02:12:02;;;;;;;5.80;2.70;;;21.50;58.00;;;;;;5004300;28;20207;-77
2022/06/23 02:14:52;;;;;;;8.17;3.00;;;21.50;57.90;;;;;;5002359;28;20219;-77
2022/06/23 02:17:34;;;;;;;7.17;3.10;;;21.50;58.00;;;;;;4991067;28;20195;-77
2022/06/23 02:20:16;;;;;;;6.23;2.43;;;21.40;58.00;;;;;;4989504;28;20192;-76
2022/06/23 02:22:47;;;;;;;11.87;3.20;;;21.40;58.10;;;;;;4998522;28;20205;-77
2022/06/23 02:25:19;;;;;;;6.17;2.57;;;21.40;58.10;;;;;;4993057;28;20680;-77
2022/06/23 02:27:52;;;;;;;10.07;3.17;;;21.40;58.20;;;;;;4993037;28;20189;-77
2022/06/23 02:33:06;;;;;;;4.83;2.70;;;21.30;58.30;;;;;;5001529;28;20220;-77
2022/06/23 02:35:41;;;;;;;4.47;2.63;;;21.30;58.40;;;;;;4989429;28;20217;-77
2022/06/23 02:38:13;;;;;;;6.17;2.27;;;21.30;58.30;;;;;;4995471;28;20204;-77
2022/06/23 02:40:44;;;;;;;5.33;2.83;;;21.30;58.40;;;;;;4998130;28;21002;-77
2022/06/23 02:43:26;;;;;;;12.23;2.73;;;21.30;58.60;;;;;;5001883;28;20227;-78
2022/06/23 02:46:21;;;;;;;5.10;2.90;;;21.20;58.70;;;;;;4997386;28;20231;-77
2022/06/23 02:49:19;;;;;;;4.77;2.40;;;21.20;58.90;;;;;;4981555;28;20196;-77
2022/06/23 02:52:28;;;;;;;7.37;3.07;;;21.20;59.20;;;;;;4996008;28;20197;-77
2022/06/23 02:55:33;;;;;;;6.20;3.10;;;21.10;59.30;;;;;;4972817;28;20196;-77
2022/06/23 02:58:08;;;;;;;8.00;3.60;;;21.10;59.50;;;;;;4994230;28;20200;-77
2022/06/23 03:00:44;;;;;;;4.20;2.67;;;21.00;59.50;;;;;;4997570;28;20184;-77
2022/06/23 03:03:20;;;;;;;8.33;3.43;;;21.00;59.50;;;;;;4997100;28;20441;-77
2022/06/23 03:05:55;;;;;;;8.27;2.70;;;21.00;59.60;;;;;;4990982;28;20276;-78
2022/06/23 03:08:38;;;;;;;5.93;2.90;;;21.00;59.70;;;;;;4986597;28;20196;-77
2022/06/23 03:11:51;;;;;;;5.43;2.87;;;21.00;59.90;;;;;;4998251;28;20188;-77
2022/06/23 03:14:17;;;;;;;7.50;3.50;;;21.00;60.00;;;;;;5004351;28;20195;-77
2022/06/23 03:16:51;;;;;;;9.60;3.37;;;21.00;60.10;;;;;;5003176;28;20233;-75
2022/06/23 03:19:27;;;;;;;7.70;3.20;;;21.00;60.20;;;;;;4996482;28;20185;-77
2022/06/23 03:22:09;;;;;;;7.97;3.70;;;21.00;60.50;;;;;;5002716;28;20210;-78
2022/06/23 03:24:42;;;;;;;7.03;2.93;;;21.00;60.80;;;;;;4995618;28;20189;-77
2022/06/23 03:27:21;;;;;;;9.47;3.50;;;21.00;61.00;;;;;;4995116;28;20199;-77
2022/06/23 03:29:56;;;;;;;8.17;3.63;;;21.00;61.10;;;;;;4998657;28;20199;-78
2022/06/23 03:32:30;;;;;;;8.57;3.37;;;21.00;61.40;;;;;;5003883;28;20223;-77
2022/06/23 03:35:03;;;;;;;9.37;3.40;;;21.10;61.60;;;;;;4997278;28;20240;-78
2022/06/23 03:37:42;;;;;;;7.87;3.50;;;21.10;61.50;;;;;;5001154;28;20211;-77
2022/06/23 03:43:13;;;;;;;12.53;3.97;;;21.10;61.40;;;;;;4998612;28;20212;-77
2022/06/23 03:45:51;;;;;;;9.70;3.90;;;21.20;61.40;;;;;;5003349;28;20196;-78
2022/06/23 03:48:27;;;;;;;12.80;4.10;;;21.20;61.40;;;;;;5000319;28;20211;-79
2022/06/23 03:51:00;;;;;;;5.70;3.30;;;21.20;61.40;;;;;;5006764;28;20616;-77
2022/06/23 03:53:33;;;;;;;7.93;3.53;;;21.20;61.40;;;;;;5001055;28;20193;-78
2022/06/23 03:56:05;;;;;;;11.17;3.73;;;21.30;61.30;;;;;;4995579;28;20647;-77
2022/06/23 03:58:41;;;;;;;11.88;3.60;;;21.30;61.40;;;;;;5002535;28;20645;-77
2022/06/23 04:01:19;;;;;;;9.30;3.50;;;21.40;61.60;;;;;;4993056;28;20196;-78
2022/06/23 04:03:51;;;;;;;8.75;3.45;;;21.40;61.70;;;;;;4992980;28;20216;-77
2022/06/23 04:06:23;;;;;;;8.07;3.50;;;21.40;61.60;;;;;;5007302;28;20242;-77
2022/06/23 04:09:02;;;;;;;7.53;3.67;;;21.40;61.60;;;;;;4999476;28;20203;-78
2022/06/23 04:11:45;;;;;;;12.27;4.05;;;21.50;61.60;;;;;;5003670;28;20184;-78
2022/06/23 04:14:23;;;;;;;9.63;4.67;;;21.50;61.30;;;;;;5001341;28;20199;-78
2022/06/23 04:16:59;;;;;;;11.48;4.43;;;21.60;61.30;;;;;;5002295;28;20729;-79
2022/06/23 04:19:32;;;;;;;11.50;4.90;;;21.60;61.20;;;;;;5006884;28;20188;-78
2022/06/23 04:22:06;;;;;;;18.60;5.10;;;21.70;61.20;;;;;;5001148;28;20184;-77
2022/06/23 04:24:37;;;;;;;16.07;5.23;;;21.70;61.10;;;;;;4996010;28;20328;-77
2022/06/23 04:27:13;;;;;;;10.65;5.40;;;21.80;61.20;;;;;;5005108;28;20873;-77
2022/06/23 04:29:43;;;;;;;17.73;5.87;;;21.80;61.40;;;;;;4997007;28;20188;-76
2022/06/23 04:32:17;;;;;;;16.92;6.28;;;21.80;61.60;;;;;;4995907;28;20220;-77
2022/06/23 04:34:51;;;;;;;12.35;6.13;;;21.80;61.60;;;;;;4996681;28;20271;-77
2022/06/23 04:37:32;;;;;;;13.93;5.85;;;21.80;61.40;;;;;;5002086;28;20187;-77
2022/06/23 04:40:15;;;;;;;12.00;5.53;;;21.90;61.50;;;;;;5001655;28;20203;-76
2022/06/23 04:42:53;;;;;;;13.85;5.03;;;21.90;61.50;;;;;;4997781;28;20212;-77
2022/06/23 04:45:29;;;;;;;13.65;5.22;;;21.90;61.50;;;;;;5001099;28;20216;-76
2022/06/23 04:48:00;;;;;;;10.77;5.20;;;22.00;61.80;;;;;;5002181;28;20199;-75
2022/06/23 04:50:41;;;;;;;15.32;5.55;;;22.00;61.50;;;;;;5002570;28;20214;-76
2022/06/23 04:53:22;;;;;;;11.68;5.20;;;22.10;61.40;;;;;;4998180;28;20192;-76
2022/06/23 04:56:05;;;;;;;13.50;4.57;;;22.10;61.20;;;;;;5005257;28;20644;-75
2022/06/23 04:58:42;;;;;;;12.80;4.63;;;22.20;61.30;;;;;;5004059;28;20220;-77
2022/06/23 05:01:16;;;;;;;10.18;4.18;;;22.20;61.10;;;;;;5004277;28;20724;-77
2022/06/23 05:03:51;;;;;;;10.82;3.88;;;22.30;61.00;;;;;;5003089;28;20431;-78
2022/06/23 05:06:30;;;;;;;8.90;3.50;;;22.40;60.80;;;;;;5002169;28;20206;-76
2022/06/23 05:09:03;;;;;;;14.07;4.18;;;22.40;60.70;;;;;;5000133;28;20188;-76
2022/06/23 05:11:39;;;;;;;9.63;4.20;;;22.50;60.60;;;;;;5002140;28;20192;-76
2022/06/23 05:14:16;;;;;;;11.98;3.40;;;22.60;60.50;;;;;;5000945;28;20192;-76
2022/06/23 05:16:47;;;;;;;10.32;2.72;;;22.70;60.20;;;;;;5002749;28;20196;-74
2022/06/23 05:19:22;;;;;;;11.88;3.10;;;22.70;60.00;;;;;;5000926;28;20986;-75
2022/06/23 05:21:54;;;;;;;7.55;2.83;;;22.80;59.90;;;;;;5002762;28;20243;-76
2022/06/23 05:24:26;;;;;;;6.28;3.05;;;22.90;59.90;;;;;;5004103;28;20674;-76
2022/06/23 05:27:00;;;;;;;11.15;3.03;;;23.00;59.80;;;;;;5015472;28;20272;-76
2022/06/23 05:29:35;;;;;;;9.38;3.10;;;23.00;59.70;;;;;;5005505;28;20244;-76
2022/06/23 05:32:13;;;;;;;4.55;2.55;;;23.10;59.50;;;;;;5011230;28;20902;-76
2022/06/23 05:34:48;;;;;;;4.43;2.35;;;23.20;59.50;;;;;;5002399;28;20189;-77
2022/06/23 05:37:23;;;;;;;13.07;2.10;;;23.30;59.20;;;;;;5000684;28;20826;-76
2022/06/23 05:40:03;;;;;;;8.15;1.58;;;23.30;58.60;;;;;;4995558;28;20196;-76
2022/06/23 05:42:33;;;;;;;7.43;2.15;;;23.40;57.90;;;;;;5008828;28;20192;-76
2022/06/23 05:45:05;;;;;;;8.20;1.85;;;23.50;56.00;;;;;;5004981;28;20231;-76
2022/06/23 05:47:34;;;;;;;7.40;1.80;;;23.60;54.90;;;;;;5000442;28;20203;-77
2022/06/23 05:50:09;;;;;;;4.53;1.73;;;23.60;55.10;;;;;;5004246;28;20300;-77
2022/06/23 05:52:44;;;;;;;5.18;1.30;;;23.70;54.70;;;;;;5002835;28;20198;-76
2022/06/23 05:55:21;;;;;;;3.38;1.15;;;23.70;54.00;;;;;;5006800;28;20196;-78
2022/06/23 05:57:55;;;;;;;5.90;1.40;;;23.80;53.90;;;;;;5005376;28;20188;-77
2022/06/23 06:00:35;;;;;;;2.92;1.30;;;23.90;53.10;;;;;;5001950;28;20192;-78
2022/06/23 06:03:15;;;;;;;6.80;1.65;;;24.00;53.20;;;;;;5008491;28;20183;-76
2022/06/23 06:05:46;;;;;;;9.80;1.10;;;24.00;53.40;;;;;;5006191;28;20188;-76
2022/06/23 06:08:20;;;;;;;1.90;1.13;;;24.10;53.50;;;;;;5005789;28;20291;-77
2022/06/23 06:10:50;;;;;;;4.68;1.55;;;24.20;53.10;;;;;;5004388;28;20565;-78
2022/06/23 06:13:24;;;;;;;4.07;1.00;;;24.30;53.10;;;;;;5017570;28;20883;-79
2022/06/23 06:15:56;;;;;;;3.60;1.25;;;24.30;52.90;;;;;;5000940;28;20201;-80
2022/06/23 06:18:29;;;;;;;2.50;0.75;;;24.40;52.60;;;;;;5007277;28;20194;-77
2022/06/23 06:21:01;;;;;;;3.85;1.20;;;24.40;52.00;;;;;;5014928;28;20206;-77
2022/06/23 06:23:37;;;;;;;1.00;0.70;;;24.50;52.10;;;;;;5008223;28;20188;-77
2022/06/23 06:26:06;;;;;;;4.22;1.08;;;24.60;52.00;;;;;;5005228;28;20191;-76
2022/06/23 06:28:36;;;;;;;4.35;1.30;;;24.70;51.20;;;;;;5012808;28;20200;-77
2022/06/23 06:31:13;;;;;;;11.30;1.70;;;24.70;51.50;;;;;;4989505;28;20255;-79
2022/06/23 06:33:52;;;;;;;3.90;1.20;;;24.80;51.20;;;;;;5005685;28;20192;-77
2022/06/23 06:36:37;;;;;;;3.08;0.98;;;24.90;50.90;;;;;;5013669;28;20199;-77
2022/06/23 06:39:11;;;;;;;3.50;0.90;;;25.00;50.70;;;;;;4988805;28;20208;-78
2022/06/23 06:41:42;;;;;;;2.15;0.90;;;25.00;50.20;;;;;;5000455;28;20552;-78
2022/06/23 06:44:13;;;;;;;1.70;1.05;;;25.10;50.40;;;;;;5010182;28;20203;-77
2022/06/23 06:46:42;;;;;;;9.10;1.33;;;25.10;50.30;;;;;;5008720;28;20312;-77
2022/06/23 06:49:15;;;;;;;3.33;0.90;;;25.20;50.40;;;;;;4990152;28;20196;-78
2022/06/23 06:51:44;;;;;;;3.63;1.10;;;25.20;50.20;;;;;;5017884;28;20183;-78
2022/06/23 06:54:17;;;;;;;4.40;1.10;;;25.30;49.80;;;;;;5005784;28;20200;-78
2022/06/23 06:56:49;;;;;;;6.68;1.20;;;25.30;49.50;;;;;;4996771;28;20192;-76
2022/06/23 06:59:25;;;;;;;2.42;1.10;;;25.40;50.00;;;;;;5004710;28;20198;-76
2022/06/23 07:01:59;;;;;;;5.53;1.50;;;25.50;50.30;;;;;;5010166;28;20200;-76
2022/06/23 07:04:32;;;;;;;6.00;1.55;;;25.50;50.60;;;;;;5004789;28;20214;-77
2022/06/23 07:07:06;;;;;;;4.05;1.20;;;25.60;50.80;;;;;;4992657;28;20449;-77
2022/06/23 07:09:40;;;;;;;4.93;1.08;;;25.60;50.50;;;;;;4998473;28;20642;-76
2022/06/23 07:12:14;;;;;;;1.33;0.88;;;25.70;50.20;;;;;;5004960;28;20197;-76
2022/06/23 07:14:51;;;;;;;2.38;1.08;;;25.70;48.60;;;;;;5004797;28;20191;-77
2022/06/23 07:17:24;;;;;;;2.50;0.85;;;25.80;48.70;;;;;;5003106;28;20201;-75
2022/06/23 07:19:55;;;;;;;6.13;1.10;;;25.80;48.70;;;;;;4990460;28;20220;-76
2022/06/23 07:22:29;;;;;;;1.63;1.00;;;25.80;48.70;;;;;;4999406;28;20191;-78
2022/06/23 07:25:04;;;;;;;3.72;1.10;;;25.90;48.80;;;;;;4986880;28;20217;-76
2022/06/23 07:27:39;;;;;;;1.83;0.80;;;26.00;48.20;;;;;;4987608;28;20207;-76
2022/06/23 07:30:15;;;;;;;3.95;0.90;;;26.00;48.60;;;;;;4999218;28;20782;-76
2022/06/23 07:32:48;;;;;;;4.13;1.20;;;26.10;48.20;;;;;;5002050;28;20231;-75
2022/06/23 07:35:27;;;;;;;4.65;1.00;;;26.10;48.30;;;;;;5005965;28;20197;-76
2022/06/23 07:38:01;;;;;;;4.28;1.00;;;26.20;48.60;;;;;;5002609;28;20196;-76
2022/06/23 07:40:34;;;;;;;3.75;0.90;;;26.30;48.40;;;;;;4999741;28;20819;-75
2022/06/23 07:43:08;;;;;;;2.45;0.80;;;26.40;48.50;;;;;;5003142;28;20189;-76
2022/06/23 07:45:50;;;;;;;3.30;1.00;;;26.40;47.30;;;;;;4999386;28;20903;-75
2022/06/23 07:48:18;;;;;;;3.63;0.80;;;26.50;47.60;;;;;;4997315;28;20196;-75
2022/06/23 07:50:47;;;;;;;2.17;0.68;;;26.50;47.00;;;;;;5006968;28;20196;-75
2022/06/23 07:53:20;;;;;;;4.78;0.90;;;26.60;47.00;;;;;;5006448;28;20196;-75
2022/06/23 07:55:50;;;;;;;1.00;0.70;;;26.70;47.00;;;;;;4998801;28;20193;-76
2022/06/23 07:58:22;;;;;;;2.03;0.70;;;26.80;47.00;;;;;;5001439;28;20196;-76
2022/06/23 08:01:00;;;;;;;1.90;0.75;;;26.80;46.40;;;;;;5002447;28;20775;-75
2022/06/23 08:03:34;;;;;;;2.15;0.70;;;26.90;46.90;;;;;;5001522;28;20645;-76
2022/06/23 08:06:08;;;;;;;2.65;0.80;;;27.00;45.80;;;;;;5002961;28;20269;-76
2022/06/23 08:08:38;;;;;;;2.17;1.00;;;27.00;46.00;;;;;;5004731;28;20184;-75
2022/06/23 08:14:23;;;;;;;2.03;0.90;;;27.10;45.60;;;;;;4999904;28;20200;-76
2022/06/23 08:16:52;;;;;;;1.15;0.68;;;27.10;45.40;;;;;;5005180;28;20196;-76
2022/06/23 08:19:31;;;;;;;2.33;0.82;;;27.10;45.10;;;;;;5003243;28;20374;-75
2022/06/23 08:22:12;;;;;;;2.38;1.05;;;27.20;44.90;;;;;;5003707;28;20196;-75
2022/06/23 08:24:43;;;;;;;8.40;1.58;;;27.20;45.60;;;;;;5004813;28;20195;-75
2022/06/23 08:27:31;;;;;;;2.97;1.17;;;27.20;45.90;;;;;;4996505;28;20192;-77
2022/06/23 08:30:04;;;;;;;3.85;1.33;;;27.20;45.30;;;;;;5004672;28;20239;-76
2022/06/23 08:32:37;;;;;;;1.08;0.90;;;27.20;45.40;;;;;;5006500;28;20751;-76
2022/06/23 08:35:09;;;;;;;2.22;1.20;;;27.30;45.70;;;;;;5006426;28;20779;-76
2022/06/23 08:37:43;;;;;;;1.80;1.10;;;27.30;45.20;;;;;;4999897;28;20292;-76
2022/06/23 08:40:21;;;;;;;3.58;1.15;;;27.40;45.50;;;;;;5001269;28;20204;-76
2022/06/23 08:42:57;;;;;;;4.68;1.30;;;27.40;45.50;;;;;;5008955;28;20657;-76
2022/06/23 08:45:33;;;;;;;3.47;1.30;;;27.40;45.10;;;;;;5013374;28;20310;-75
2022/06/23 08:48:12;;;;;;;5.75;1.38;;;27.40;45.30;;;;;;5000997;28;20838;-78
2022/06/23 08:50:45;;;;;;;2.53;1.10;;;27.50;45.60;;;;;;5006491;28;20200;-77
2022/06/23 08:53:21;;;;;;;5.47;1.20;;;27.60;45.70;;;;;;5003725;28;20729;-78
2022/06/23 08:56:01;;;;;;;2.25;1.83;;;27.60;45.40;;;;;;5006584;28;20192;-79
2022/06/23 08:58:36;;;;;;;3.45;1.10;;;27.70;44.30;;;;;;5015193;28;20211;-76
2022/06/23 09:01:11;;;;;;;10.20;1.33;;;27.70;44.30;;;;;;4989200;28;20192;-77
2022/06/23 09:03:50;;;;;;;7.63;1.40;;;27.70;44.50;;;;;;5003316;28;20222;-77
2022/06/23 09:06:33;;;;;;;5.60;1.60;;;27.70;44.50;;;;;;5004399;28;20239;-79
2022/06/23 09:09:16;;;;;;;6.22;1.60;;;27.80;45.10;;;;;;5005088;28;20367;-79
2022/06/23 09:11:51;;;;;;;3.22;1.60;;;27.80;45.50;;;;;;5003760;28;20195;-78
2022/06/23 09:14:57;;;;;;;4.80;1.58;;;27.90;45.40;;;;;;5005333;28;20199;-78
2022/06/23 09:17:41;;;;;;;4.30;1.90;;;27.90;45.70;;;;;;5004046;28;20189;-77
2022/06/23 09:20:26;;;;;;;3.92;1.25;;;27.90;45.50;;;;;;5001389;28;20223;-78
2022/06/23 09:23:12;;;;;;;6.75;1.88;;;28.00;45.80;;;;;;5005479;28;20196;-78
2022/06/23 09:25:50;;;;;;;4.63;1.35;;;28.00;45.50;;;;;;5006455;28;20228;-77
2022/06/23 09:28:21;;;;;;;4.70;1.60;;;28.10;45.50;;;;;;5005056;28;20200;-80
2022/06/23 09:31:02;;;;;;;5.88;1.88;;;28.20;45.70;;;;;;5001955;28;20199;-78
2022/06/23 09:33:43;;;;;;;2.17;1.60;;;28.20;44.70;;;;;;5001443;28;20201;-78
2022/06/23 09:36:47;;;;;;;2.83;1.20;;;28.30;45.20;;;;;;5005592;28;20191;-76
2022/06/23 09:39:32;;;;;;;4.47;1.25;;;28.40;44.40;;;;;;5001631;28;20646;-75
2022/06/23 09:42:18;;;;;;;2.33;1.38;;;28.50;44.40;;;;;;5004245;28;20912;-76
2022/06/23 09:45:22;;;;;;;4.68;1.48;;;28.60;44.70;;;;;;5007839;28;20192;-75
2022/06/23 09:48:09;;;;;;;5.97;1.60;;;28.70;44.70;;;;;;4982332;28;20197;-75
2022/06/23 09:51:04;;;;;;;8.43;1.65;;;28.70;44.70;;;;;;5003895;28;20884;-79
2022/06/23 09:54:18;;;;;;;3.50;1.10;;;28.80;44.40;;;;;;5000998;28;20197;-77
2022/06/23 09:57:10;;;;;;;6.70;1.50;;;28.80;44.20;;;;;;4968518;28;20196;-76
2022/06/23 09:59:57;;;;;;;3.85;1.00;;;28.80;43.90;;;;;;5001574;28;20644;-79
2022/06/23 10:02:46;;;;;;;4.30;1.17;;;28.70;42.90;;;;;;4998660;28;20315;-79
2022/06/23 10:05:29;;;;;;;2.25;1.00;;;28.70;42.60;;;;;;5001687;28;20303;-79
2022/06/23 10:08:20;;;;;;;2.00;0.95;;;28.70;42.80;;;;;;4995536;28;20685;-80
2022/06/23 10:11:10;;;;;;;1.50;1.05;;;28.70;42.90;;;;;;5006335;28;20186;-78
2022/06/23 10:14:00;;;;;;;1.90;0.95;;;28.70;42.80;;;;;;5003796;28;20203;-80
2022/06/23 10:16:56;;;;;;;3.80;1.25;;;28.70;42.80;;;;;;5003928;28;20219;-77
2022/06/23 10:19:56;;;;;;;4.28;0.90;;;28.70;42.60;;;;;;4993871;28;20188;-75
2022/06/23 10:22:52;;;;;;;2.97;1.50;;;28.80;43.00;;;;;;4992629;28;20184;-78
2022/06/23 10:25:49;;;;;;;2.92;1.10;;;28.80;42.30;;;;;;5013494;28;20234;-76
2022/06/23 10:28:37;;;;;;;3.25;1.10;;;28.70;42.10;;;;;;4995798;28;20200;-78
2022/06/23 10:31:16;;;;;;;4.22;0.90;;;28.80;42.30;;;;;;5003602;28;20256;-78
2022/06/23 10:34:13;;;;;;;2.22;0.93;;;28.80;42.70;;;;;;4997184;28;20197;-79
2022/06/23 10:37:09;;;;;;;3.08;1.15;;;28.80;42.60;;;;;;5001858;28;20572;-80
2022/06/23 10:40:06;;;;;;;7.00;1.00;;;28.80;42.10;;;;;;5001478;28;20199;-80
2022/06/23 10:43:14;;;;;;;6.00;1.00;;;28.80;42.40;;;;;;4991386;28;20204;-76
2022/06/23 10:45:48;;;;;;;2.08;0.95;;;28.80;42.80;;;;;;5004137;28;20197;-76
2022/06/23 10:48:56;;;;;;;3.40;1.05;;;28.80;42.10;;;;;;4991288;28;20193;-78
2022/06/23 10:51:49;;;;;;;1.50;0.88;;;28.70;41.80;;;;;;4986469;28;20754;-78
2022/06/23 10:54:39;;;;;;;2.60;0.90;;;28.80;42.30;;;;;;5007332;28;20195;-82
2022/06/23 11:22:23;;;;;;;4.32;1.20;;;28.40;41.40;;;;;;4990598;28;20586;-74
2022/06/23 11:25:00;;;;;;;3.03;1.10;;;28.80;43.50;;;;;;4989902;28;20565;-73
2022/06/23 11:27:38;;;;;;;3.00;0.85;;;28.80;43.20;;;;;;4991525;28;20203;-73
2022/06/23 11:30:15;;;;;;;2.38;1.35;;;28.80;42.90;;;;;;4984968;28;20188;-74
2022/06/23 11:33:02;;;;;;;4.63;1.65;;;28.90;43.10;;;;;;4992000;28;20201;-74
2022/06/23 11:35:48;;;;;;;1.83;1.20;;;28.90;43.30;;;;;;4980344;28;20188;-75
2022/06/23 11:38:49;;;;;;;1.98;1.20;;;28.90;43.20;;;;;;4991865;28;20194;-76
2022/06/23 11:41:42;;;;;;;5.00;1.10;;;29.00;43.60;;;;;;4964367;28;20246;-76
2022/06/23 11:44:25;;;;;;;3.58;1.10;;;29.00;43.50;;;;;;4979991;28;20203;-74
2022/06/23 11:47:00;;;;;;;3.17;1.27;;;29.00;43.40;;;;;;4981921;28;20201;-75
2022/06/23 11:49:46;;;;;;;3.97;1.20;;;29.00;43.60;;;;;;4996133;28;20613;-73
2022/06/23 11:52:33;;;;;;;3.92;1.33;;;29.10;44.00;;;;;;4989400;28;20196;-74
2022/06/23 11:55:18;;;;;;;3.35;1.20;;;29.10;44.20;;;;;;4984524;28;20208;-75
2022/06/23 11:58:01;;;;;;;2.08;1.17;;;29.10;43.70;;;;;;4994382;28;20204;-75
2022/06/23 12:00:42;;;;;;;2.28;0.85;;;29.10;43.80;;;;;;4995549;28;20219;-76
2022/06/23 12:03:21;;;;;;;5.35;1.20;;;29.10;44.10;;;;;;5004866;28;20196;-75
2022/06/23 12:06:03;;;;;;;2.42;1.20;;;29.00;44.00;;;;;;5008939;28;20872;-75
2022/06/23 12:08:49;;;;;;;2.45;0.95;;;29.00;44.30;;;;;;5012495;28;20408;-76
2022/06/23 12:11:19;;;;;;;3.45;1.20;;;29.00;44.20;;;;;;5007075;28;20199;-75
2022/06/23 12:13:48;;;;;;;4.28;1.30;;;29.00;44.50;;;;;;5006688;28;20216;-74
2022/06/23 12:16:17;;;;;;;2.63;1.42;;;29.00;44.40;;;;;;5018349;28;20197;-76
2022/06/23 12:18:50;;;;;;;5.22;1.10;;;29.10;44.90;;;;;;5012347;28;20201;-75
2022/06/23 12:21:30;;;;;;;2.53;0.82;;;29.10;45.10;;;;;;5009005;28;20990;-74
2022/06/23 12:24:07;;;;;;;1.23;0.93;;;29.20;45.20;;;;;;4998774;28;20267;-73
2022/06/23 12:26:41;;;;;;;1.77;0.75;;;29.20;46.30;;;;;;4996759;28;20196;-74
2022/06/23 12:29:17;;;;;;;1.98;0.90;;;29.20;46.70;;;;;;4993777;28;20186;-73
2022/06/23 12:31:53;;;;;;;2.40;0.80;;;29.20;46.80;;;;;;5000032;28;20191;-75
2022/06/23 12:34:32;;;;;;;1.80;1.20;;;29.20;46.50;;;;;;5001989;28;20244;-75
2022/06/23 12:37:13;;;;;;;6.35;1.20;;;29.20;46.50;;;;;;4988664;28;20640;-76
2022/06/23 12:39:51;;;;;;;1.58;0.82;;;29.20;46.60;;;;;;4994902;28;21453;-74
2022/06/23 12:42:29;;;;;;;4.80;1.00;;;29.30;46.70;;;;;;5005351;28;20195;-76
2022/06/23 12:45:17;;;;;;;3.08;0.80;;;29.50;47.10;;;;;;4993390;28;20220;-75
2022/06/23 12:48:00;;;;;;;2.42;0.80;;;29.60;46.90;;;;;;5001570;28;20204;-75
2022/06/23 12:50:49;;;;;;;2.60;1.23;;;29.90;46.70;;;;;;4999507;28;20200;-74
2022/06/23 12:53:39;;;;;;;2.13;1.00;;;30.10;46.00;;;;;;5005931;28;20204;-74
2022/06/23 12:56:19;;;;;;;2.58;0.85;;;30.20;45.70;;;;;;5008875;28;20189;-75
2022/06/23 12:58:53;;;;;;;1.73;1.00;;;30.40;45.30;;;;;;4990982;28;20193;-75
2022/06/23 13:01:37;;;;;;;0.95;0.80;;;30.60;44.80;;;;;;4992881;28;20700;-75
2022/06/23 13:04:11;;;;;;;1.85;1.08;;;30.80;44.90;;;;;;4984280;28;20756;-75
2022/06/23 13:06:52;;;;;;;1.55;0.75;;;31.00;44.50;;;;;;4995009;28;20192;-74
2022/06/23 13:09:30;;;;;;;4.32;1.00;;;31.10;43.80;;;;;;4999405;28;20815;-74
2022/06/23 13:12:23;;;;;;;1.20;0.85;;;31.20;43.60;;;;;;4993664;28;20193;-74
2022/06/23 13:14:57;;;;;;;1.65;1.02;;;31.30;43.70;;;;;;4999091;28;20193;-75
2022/06/23 13:17:38;;;;;;;2.60;0.95;;;31.40;43.60;;;;;;5002606;28;20196;-74
2022/06/23 13:20:16;;;;;;;5.07;1.15;;;31.40;43.20;;;;;;4991543;28;20227;-74
2022/06/23 13:22:48;;;;;;;2.50;1.10;;;31.40;43.20;;;;;;5001627;28;20850;-78
2022/06/23 13:25:21;;;;;;;1.75;0.90;;;31.40;42.60;;;;;;5011940;28;20189;-75
2022/06/23 13:27:52;;;;;;;1.67;0.77;;;31.40;42.40;;;;;;4998268;28;20192;-75
2022/06/23 13:30:47;;;;;;;1.60;0.90;;;31.30;42.40;;;;;;4995999;28;20200;-74
2022/06/23 13:33:24;;;;;;;8.30;1.35;;;31.20;42.40;;;;;;4997109;28;20206;-74
2022/06/23 13:35:59;;;;;;;6.70;1.20;;;31.20;42.50;;;;;;5001377;28;20243;-73
2022/06/23 13:38:40;;;;;;;6.97;0.95;;;31.20;42.50;;;;;;5003926;28;20235;-76
2022/06/23 13:41:15;;;;;;;4.03;0.80;;;31.10;42.60;;;;;;5002528;28;20212;-74
2022/06/23 13:43:51;;;;;;;5.65;1.10;;;31.10;41.90;;;;;;5003720;28;20191;-74
2022/06/23 13:46:30;;;;;;;1.00;0.80;;;31.00;41.60;;;;;;5001478;28;20195;-74
2022/06/23 13:49:07;;;;;;;3.03;0.90;;;31.00;41.80;;;;;;4999267;28;20888;-75
2022/06/23 13:51:44;;;;;;;2.80;1.02;;;30.90;42.00;;;;;;4996443;28;20892;-73
2022/06/23 13:54:24;;;;;;;2.15;0.80;;;30.90;42.10;;;;;;4998873;28;20184;-74
2022/06/23 13:56:59;;;;;;;3.38;0.95;;;30.90;42.00;;;;;;4996187;28;20196;-74
2022/06/23 13:59:36;;;;;;;2.38;0.80;;;30.90;41.70;;;;;;4994022;28;20188;-75
2022/06/23 14:02:15;;;;;;;1.35;0.90;;;30.90;41.40;;;;;;5000871;28;20215;-74
2022/06/23 14:04:49;;;;;;;5.03;0.90;;;30.90;41.20;;;;;;4998468;28;20218;-75
2022/06/23 14:07:27;;;;;;;2.53;0.93;;;30.90;41.40;;;;;;4996652;28;20959;-74
2022/06/23 14:10:00;;;;;;;1.55;0.88;;;30.90;41.80;;;;;;4998118;28;20685;-74
2022/06/23 14:12:36;;;;;;;0.95;0.80;;;30.90;42.00;;;;;;4995513;28;20197;-74
2022/06/23 14:15:09;;;;;;;1.45;0.70;;;30.90;41.50;;;;;;4992829;28;20208;-75
2022/06/23 14:17:47;;;;;;;2.33;0.98;;;30.90;41.40;;;;;;5003344;28;20202;-75